createdAt,value
2019-06-07T00:01:21.358Z,17.40
2019-06-07T00:03:51.356Z,17.40
2019-06-07T00:06:25.059Z,17.40
2019-06-07T00:08:52.521Z,17.40
2019-06-07T00:11:22.226Z,17.30
2019-06-07T00:13:53.564Z,17.30
2019-06-07T00:16:25.337Z,17.30
2019-06-07T00:18:54.783Z,17.20
2019-06-07T00:22:12.144Z,17.20
2019-06-07T00:23:55.960Z,17.30
2019-06-07T00:26:25.650Z,17.30
2019-06-07T00:28:56.433Z,17.30
2019-06-07T00:31:26.300Z,17.30
2019-06-07T00:33:56.382Z,17.30
2019-06-07T00:36:26.216Z,17.30
2019-06-07T00:38:55.985Z,17.30
2019-06-07T00:41:25.710Z,17.30
2019-06-07T00:43:55.426Z,17.30
2019-06-07T00:46:25.483Z,17.30
2019-06-07T00:48:56.430Z,17.30
2019-06-07T00:51:26.160Z,17.30
2019-06-07T00:53:56.034Z,17.30
2019-06-07T00:56:25.926Z,17.30
2019-06-07T00:59:10.807Z,17.30
2019-06-07T01:01:27.195Z,17.30
2019-06-07T01:03:56.978Z,17.30
2019-06-07T01:06:26.954Z,17.20
2019-06-07T01:08:56.773Z,17.30
2019-06-07T01:11:26.592Z,17.30
2019-06-07T01:13:56.393Z,17.30
2019-06-07T01:16:26.381Z,17.30
2019-06-07T01:18:57.460Z,17.30
2019-06-07T01:21:29.697Z,17.20
2019-06-07T01:24:11.405Z,17.20
2019-06-07T01:26:30.568Z,17.20
2019-06-07T01:29:01.512Z,17.20
2019-06-07T01:31:31.979Z,17.10
2019-06-07T01:34:01.858Z,17.10
2019-06-07T01:36:31.527Z,17.10
2019-06-07T01:39:01.223Z,17.10
2019-06-07T01:41:32.678Z,17.10
2019-06-07T01:44:02.444Z,17.00
2019-06-07T01:46:32.222Z,16.90
2019-06-07T01:49:01.922Z,16.90
2019-06-07T01:51:32.329Z,16.90
2019-06-07T01:54:48.779Z,16.80
2019-06-07T01:56:33.609Z,16.80
2019-06-07T01:59:03.414Z,16.80
2019-06-07T02:01:35.149Z,16.70
2019-06-07T02:04:04.883Z,16.60
2019-06-07T02:06:34.664Z,16.60
2019-06-07T02:09:07.135Z,16.50
2019-06-07T02:11:36.856Z,16.40
2019-06-07T02:14:06.835Z,16.40
2019-06-07T02:16:37.634Z,16.40
2019-06-07T02:19:07.337Z,16.40
2019-06-07T02:21:37.151Z,16.30
2019-06-07T02:24:06.920Z,16.40
2019-06-07T02:26:36.591Z,16.30
2019-06-07T02:29:06.553Z,16.30
2019-06-07T02:31:39.633Z,16.20
2019-06-07T02:34:07.696Z,16.10
2019-06-07T02:36:41.457Z,16.10
2019-06-07T02:39:08.870Z,16.10
2019-06-07T02:41:39.878Z,16.20
2019-06-07T02:44:09.964Z,16.10
2019-06-07T02:46:49.055Z,16.10
2019-06-07T02:49:14.144Z,16.10
2019-06-07T02:51:44.185Z,16.10
2019-06-07T02:54:13.959Z,16.00
2019-06-07T02:56:57.410Z,16.00
2019-06-07T02:59:16.772Z,16.00
2019-06-07T03:01:46.701Z,15.90
2019-06-07T03:04:17.003Z,15.90
2019-06-07T03:06:49.273Z,15.90
2019-06-07T03:09:19.430Z,15.90
2019-06-07T03:11:52.232Z,15.90
2019-06-07T03:14:23.941Z,16.00
2019-06-07T03:17:02.761Z,16.00
2019-06-07T03:19:39.485Z,16.00
2019-06-07T03:22:09.304Z,16.00
2019-06-07T03:24:42.109Z,16.00
2019-06-07T03:27:33.998Z,16.00
2019-06-07T03:29:41.890Z,16.10
2019-06-07T03:32:11.615Z,16.20
2019-06-07T03:34:43.846Z,16.30
2019-06-07T03:37:12.832Z,16.30
2019-06-07T03:39:42.785Z,16.30
2019-06-07T03:42:13.093Z,16.30
2019-06-07T03:44:43.031Z,16.30
2019-06-07T03:47:12.822Z,16.30
2019-06-07T03:49:42.877Z,16.40
2019-06-07T03:52:12.879Z,16.40
2019-06-07T03:54:42.637Z,16.40
2019-06-07T03:57:12.369Z,16.40
2019-06-07T03:59:42.239Z,16.50
2019-06-07T04:02:12.104Z,16.50
2019-06-07T04:04:41.927Z,16.60
2019-06-07T04:07:11.862Z,16.70
2019-06-07T04:09:43.074Z,16.70
2019-06-07T04:12:13.241Z,16.70
2019-06-07T04:14:43.714Z,16.70
2019-06-07T04:17:13.420Z,16.60
2019-06-07T04:19:43.806Z,16.60
2019-06-07T04:22:13.756Z,16.50
2019-06-07T04:24:43.536Z,16.50
2019-06-07T04:27:13.288Z,16.50
2019-06-07T04:30:05.379Z,16.50
2019-06-07T04:32:14.417Z,16.60
2019-06-07T04:34:44.116Z,16.60
2019-06-07T04:37:14.072Z,16.70
2019-06-07T04:39:45.619Z,16.80
2019-06-07T04:42:16.038Z,16.80
2019-06-07T04:44:48.406Z,16.90
2019-06-07T04:47:20.144Z,17.00
2019-06-07T04:49:50.726Z,17.30
2019-06-07T04:52:20.430Z,18.20
2019-06-07T04:54:50.265Z,19.30
2019-06-07T04:57:19.932Z,20.20
2019-06-07T05:00:33.923Z,21.00
2019-06-07T05:02:21.176Z,21.50
2019-06-07T05:04:50.910Z,21.90
2019-06-07T05:07:20.686Z,22.30
2019-06-07T05:09:50.370Z,22.70
2019-06-07T05:12:20.048Z,23.20
2019-06-07T05:14:49.702Z,23.40
2019-06-07T05:17:19.366Z,23.80
2019-06-07T05:19:49.030Z,24.00
2019-06-07T05:22:18.718Z,24.10
2019-06-07T05:24:48.402Z,24.60
2019-06-07T05:27:18.204Z,24.50
2019-06-07T05:30:08.884Z,24.60
2019-06-07T05:32:19.713Z,24.80
2019-06-07T05:34:49.480Z,25.00
2019-06-07T05:37:19.196Z,25.20
2019-06-07T05:39:48.911Z,25.10
2019-06-07T05:42:18.632Z,25.00
2019-06-07T05:44:48.330Z,24.70
2019-06-07T05:47:18.029Z,24.60
2019-06-07T05:49:47.681Z,24.70
2019-06-07T05:52:17.403Z,24.90
2019-06-07T05:54:47.226Z,24.90
2019-06-07T05:57:17.035Z,25.00
2019-06-07T05:59:47.454Z,25.30
2019-06-07T06:02:22.594Z,25.30
2019-06-07T06:04:49.719Z,25.50
2019-06-07T06:07:19.755Z,25.50
2019-06-07T06:09:49.541Z,25.40
2019-06-07T06:12:34.104Z,25.10
2019-06-07T06:14:51.770Z,24.70
2019-06-07T06:17:21.657Z,24.50
2019-06-07T06:19:53.435Z,24.40
2019-06-07T06:22:23.762Z,24.60
2019-06-07T06:25:30.082Z,24.70
2019-06-07T06:29:56.539Z,24.80
2019-06-07T06:32:49.254Z,24.80
2019-06-07T06:34:57.744Z,25.10
2019-06-07T06:37:27.598Z,25.30
2019-06-07T06:39:57.298Z,25.50
2019-06-07T06:42:27.033Z,25.60
2019-06-07T06:45:32.486Z,25.50
2019-06-07T06:48:02.543Z,25.60
2019-06-07T06:50:33.487Z,25.80
2019-06-07T06:53:07.844Z,25.50
2019-06-07T06:55:41.390Z,25.20
2019-06-07T06:58:13.594Z,25.00
2019-06-07T07:00:58.106Z,25.10
2019-06-07T07:03:55.985Z,25.10
2019-06-07T07:05:54.751Z,25.30
2019-06-07T07:08:23.824Z,25.10
2019-06-07T07:10:55.047Z,25.10
2019-06-07T07:13:27.364Z,25.30
2019-06-07T07:15:58.259Z,25.30
2019-06-07T07:18:28.521Z,25.10
2019-06-07T07:20:58.741Z,24.90
2019-06-07T07:23:28.743Z,24.70
2019-06-07T07:26:00.115Z,24.60
2019-06-07T07:28:30.405Z,24.80
2019-06-07T07:31:00.474Z,24.90
2019-06-07T07:34:20.679Z,25.10
2019-06-07T07:36:22.734Z,25.30
2019-06-07T07:38:33.569Z,25.40
2019-06-07T07:41:15.316Z,25.50
2019-06-07T07:43:39.570Z,25.50
2019-06-07T07:46:28.378Z,25.40
2019-06-07T07:48:40.931Z,25.40
2019-06-07T07:51:10.927Z,25.20
2019-06-07T07:53:50.662Z,25.10
2019-06-07T07:56:12.202Z,25.10
2019-06-07T07:58:41.972Z,25.10
2019-06-07T08:01:11.795Z,25.20
2019-06-07T08:03:41.515Z,25.10
2019-06-07T08:06:11.326Z,25.00
2019-06-07T08:08:43.543Z,24.90
2019-06-07T08:11:14.433Z,24.70
2019-06-07T08:13:44.362Z,24.40
2019-06-07T08:16:18.744Z,24.20
2019-06-07T08:18:51.000Z,24.00
2019-06-07T08:21:25.320Z,23.90
2019-06-07T08:23:55.619Z,23.80
2019-06-07T08:26:22.125Z,24.00
2019-06-07T08:28:54.712Z,24.30
2019-06-07T08:31:24.555Z,24.40
2019-06-07T08:33:57.993Z,24.40
2019-06-07T08:36:41.262Z,24.30
2019-06-07T08:39:05.737Z,23.90
2019-06-07T08:41:29.343Z,23.60
2019-06-07T08:44:04.274Z,23.50
2019-06-07T08:46:32.005Z,23.50
2019-06-07T08:49:11.259Z,23.50
2019-06-07T08:51:41.040Z,23.60
2019-06-07T08:54:22.363Z,23.80
2019-06-07T08:56:43.485Z,23.90
2019-06-07T08:59:26.416Z,24.10
2019-06-07T09:01:59.747Z,24.10
2019-06-07T09:04:27.646Z,24.30
2019-06-07T09:07:14.694Z,24.60
2019-06-07T09:09:32.777Z,24.90
2019-06-07T09:12:08.074Z,24.90
2019-06-07T09:14:34.338Z,24.80
2019-06-07T09:17:11.156Z,24.70
2019-06-07T09:19:38.222Z,24.80
2019-06-07T09:22:11.179Z,25.00
2019-06-07T09:24:39.520Z,25.10
2019-06-07T09:27:10.472Z,25.30
2019-06-07T09:29:40.933Z,25.30
2019-06-07T09:32:18.034Z,25.30
2019-06-07T09:34:45.381Z,25.30
2019-06-07T09:38:03.505Z,25.30
2019-06-07T09:40:09.684Z,25.30
2019-06-07T09:42:29.700Z,25.30
2019-06-07T09:45:01.157Z,25.20
2019-06-07T09:47:32.898Z,25.10
2019-06-07T09:50:06.021Z,25.00
2019-06-07T09:52:56.408Z,24.80
2019-06-07T09:55:22.823Z,24.60
2019-06-07T09:58:47.841Z,24.60
2019-06-07T10:00:41.455Z,24.60
2019-06-07T10:03:17.774Z,24.70
2019-06-07T10:05:41.246Z,24.90
2019-06-07T10:08:41.005Z,25.10
2019-06-07T10:11:11.024Z,25.30
2019-06-07T10:13:46.649Z,25.40
2019-06-07T10:16:21.679Z,25.50
2019-06-07T10:18:51.510Z,25.50
2019-06-07T10:21:21.338Z,25.60
2019-06-07T10:23:51.371Z,25.80
2019-06-07T10:26:21.122Z,26.00
2019-06-07T10:28:53.445Z,26.30
2019-06-07T10:31:22.572Z,26.50
2019-06-07T10:34:02.317Z,26.60
2019-06-07T10:36:32.304Z,26.60
2019-06-07T10:39:02.925Z,26.50
2019-06-07T10:41:34.424Z,26.20
2019-06-07T10:44:05.507Z,25.90
2019-06-07T10:46:36.679Z,25.70
2019-06-07T10:49:07.879Z,25.60
2019-06-07T10:51:37.776Z,25.60
2019-06-07T10:54:23.203Z,25.50
2019-06-07T10:56:39.940Z,25.30
2019-06-07T10:59:10.274Z,25.50
2019-06-07T11:01:41.219Z,25.60
2019-06-07T11:04:11.756Z,25.70
2019-06-07T11:06:41.954Z,25.90
2019-06-07T11:09:12.060Z,26.10
2019-06-07T11:11:42.025Z,26.20
2019-06-07T11:14:12.721Z,26.20
2019-06-07T11:16:42.794Z,26.00
2019-06-07T11:19:16.380Z,25.70
2019-06-07T11:21:45.460Z,25.50
2019-06-07T11:24:18.370Z,25.20
2019-06-07T11:26:46.613Z,25.10
2019-06-07T11:29:16.293Z,25.00
2019-06-07T11:31:47.684Z,25.00
2019-06-07T11:34:18.859Z,25.00
2019-06-07T11:36:51.550Z,25.10
2019-06-07T11:39:21.618Z,25.30
2019-06-07T11:41:51.415Z,25.50
2019-06-07T11:44:21.213Z,25.70
2019-06-07T11:46:50.962Z,25.90
2019-06-07T11:49:22.085Z,26.00
2019-06-07T11:51:53.354Z,25.90
2019-06-07T11:54:23.231Z,25.90
2019-06-07T11:56:52.959Z,25.80
2019-06-07T11:59:22.805Z,25.40
2019-06-07T12:01:52.602Z,25.30
2019-06-07T12:04:34.337Z,25.20
2019-06-07T12:06:53.935Z,25.10
2019-06-07T12:09:23.765Z,25.00
2019-06-07T12:11:54.146Z,24.90
2019-06-07T12:14:24.153Z,24.90
2019-06-07T12:16:53.947Z,25.00
2019-06-07T12:19:23.625Z,25.00
2019-06-07T12:21:53.422Z,25.10
2019-06-07T12:24:23.316Z,25.10
2019-06-07T12:26:53.163Z,25.40
2019-06-07T12:29:22.863Z,25.50
2019-06-07T12:31:53.041Z,25.30
2019-06-07T12:34:22.913Z,25.10
2019-06-07T12:36:52.631Z,24.90
2019-06-07T12:39:22.583Z,24.90
2019-06-07T12:41:52.273Z,25.00
2019-06-07T12:44:22.868Z,25.10
2019-06-07T12:46:53.692Z,25.20
2019-06-07T12:49:23.661Z,25.30
2019-06-07T12:51:53.841Z,25.40
2019-06-07T12:54:23.874Z,25.50
2019-06-07T12:56:54.823Z,25.50
2019-06-07T12:59:24.607Z,25.50
2019-06-07T13:01:54.381Z,25.40
2019-06-07T13:04:25.006Z,25.40
2019-06-07T13:06:54.857Z,25.30
2019-06-07T13:09:24.703Z,25.30
2019-06-07T13:11:54.616Z,25.20
2019-06-07T13:14:24.567Z,25.20
2019-06-07T13:16:54.362Z,25.20
2019-06-07T13:19:24.656Z,25.20
2019-06-07T13:21:54.487Z,25.30
2019-06-07T13:24:25.175Z,25.30
2019-06-07T13:26:55.176Z,25.40
2019-06-07T13:29:29.645Z,25.40
2019-06-07T13:31:57.909Z,25.50
2019-06-07T13:34:35.629Z,25.50
2019-06-07T13:37:05.377Z,25.40
2019-06-07T13:39:36.196Z,25.40
2019-06-07T13:42:06.025Z,25.50
2019-06-07T13:44:35.728Z,25.60
2019-06-07T13:47:05.374Z,25.60
2019-06-07T13:49:35.311Z,25.60
2019-06-07T13:52:05.157Z,25.50
2019-06-07T13:54:34.900Z,25.50
2019-06-07T13:57:07.192Z,25.50
2019-06-07T13:59:36.876Z,25.40
2019-06-07T14:02:06.761Z,25.30
2019-06-07T14:04:36.674Z,25.40
2019-06-07T14:07:06.426Z,25.50
2019-06-07T14:09:36.238Z,25.30
2019-06-07T14:12:06.810Z,25.30
2019-06-07T14:14:36.661Z,25.30
2019-06-07T14:17:06.346Z,25.50
2019-06-07T14:19:36.286Z,25.50
2019-06-07T14:22:06.151Z,25.50
2019-06-07T14:24:36.125Z,25.50
2019-06-07T14:27:08.638Z,25.50
2019-06-07T14:29:40.619Z,25.50
2019-06-07T14:32:10.582Z,25.50
2019-06-07T14:34:40.624Z,25.50
2019-06-07T14:37:22.822Z,25.50
2019-06-07T14:39:53.054Z,25.50
2019-06-07T14:42:23.439Z,25.40
2019-06-07T14:44:53.619Z,25.40
2019-06-07T14:47:23.821Z,25.40
2019-06-07T14:49:53.637Z,25.40
2019-06-07T14:52:24.424Z,25.40
2019-06-07T14:54:54.649Z,25.50
2019-06-07T14:57:31.021Z,25.50
2019-06-07T15:00:10.458Z,25.50
2019-06-07T15:02:36.550Z,25.50
2019-06-07T15:05:06.393Z,25.60
2019-06-07T15:07:36.085Z,25.70
2019-06-07T15:10:07.476Z,25.70
2019-06-07T15:12:40.298Z,25.70
2019-06-07T15:15:12.115Z,25.70
2019-06-07T15:17:42.275Z,25.70
2019-06-07T15:20:16.892Z,25.50
2019-06-07T15:22:47.648Z,25.50
2019-06-07T15:25:17.603Z,25.50
2019-06-07T15:27:47.336Z,25.50
2019-06-07T15:30:17.668Z,25.50
2019-06-07T15:32:47.734Z,25.60
2019-06-07T15:35:17.654Z,25.60
2019-06-07T15:37:48.455Z,25.50
2019-06-07T15:40:19.793Z,25.50
2019-06-07T15:42:52.884Z,25.50
2019-06-07T15:45:21.589Z,25.50
2019-06-07T15:47:51.444Z,25.50
2019-06-07T15:50:22.934Z,25.50
2019-06-07T15:52:54.226Z,25.50
2019-06-07T15:55:24.158Z,25.50
2019-06-07T15:57:54.265Z,25.40
2019-06-07T16:00:24.240Z,25.50
2019-06-07T16:02:55.633Z,25.50
2019-06-07T16:05:28.917Z,25.50
2019-06-07T16:07:58.875Z,25.60
2019-06-07T16:10:28.837Z,25.50
2019-06-07T16:13:00.690Z,25.50
2019-06-07T16:15:30.214Z,25.50
2019-06-07T16:18:00.952Z,25.40
2019-06-07T16:20:35.204Z,25.40
2019-06-07T16:23:05.490Z,25.40
2019-06-07T16:25:35.834Z,25.30
2019-06-07T16:28:05.647Z,25.40
2019-06-07T16:30:36.355Z,25.40
2019-06-07T16:33:06.503Z,25.40
2019-06-07T16:35:36.933Z,25.40
2019-06-07T16:38:06.794Z,25.30
2019-06-07T16:40:36.517Z,25.30
2019-06-07T16:43:16.937Z,25.40
2019-06-07T16:45:38.654Z,25.40
2019-06-07T16:48:08.595Z,25.40
2019-06-07T16:50:38.766Z,25.40
2019-06-07T16:53:08.614Z,25.40
2019-06-07T16:55:38.673Z,25.40
2019-06-07T16:58:09.099Z,25.40
2019-06-07T17:00:40.397Z,25.30
2019-06-07T17:03:10.393Z,25.30
2019-06-07T17:05:43.746Z,25.30
2019-06-07T17:08:12.212Z,25.20
2019-06-07T17:10:42.577Z,25.20
2019-06-07T17:13:12.929Z,25.30
2019-06-07T17:15:42.803Z,25.20
2019-06-07T17:18:12.700Z,25.10
2019-06-07T17:20:43.215Z,25.10
2019-06-07T17:23:15.195Z,25.10
2019-06-07T17:25:46.025Z,25.00
2019-06-07T17:28:15.940Z,25.00
2019-06-07T17:30:48.313Z,25.00
2019-06-07T17:33:20.785Z,25.00
2019-06-07T17:35:50.729Z,25.00
2019-06-07T17:38:20.518Z,25.00
2019-06-07T17:40:51.209Z,25.00
2019-06-07T17:43:21.097Z,24.90
2019-06-07T17:45:51.577Z,24.90
2019-06-07T17:48:23.978Z,24.90
2019-06-07T17:50:53.550Z,24.80
2019-06-07T17:53:26.004Z,24.80
2019-06-07T17:55:55.799Z,24.70
2019-06-07T17:58:25.525Z,24.70
2019-06-07T18:00:55.307Z,24.70
2019-06-07T18:03:25.113Z,24.60
2019-06-07T18:05:54.862Z,24.60
2019-06-07T18:11:04.984Z,24.60
2019-06-07T18:13:34.712Z,24.50
2019-06-07T18:16:04.536Z,24.40
2019-06-07T18:18:34.245Z,24.40
2019-06-07T18:21:04.103Z,24.40
2019-06-07T18:23:33.829Z,24.40
2019-06-07T18:26:03.731Z,24.30
2019-06-07T18:28:33.566Z,24.20
2019-06-07T18:31:03.222Z,24.20
2019-06-07T18:33:32.956Z,24.20
2019-06-07T18:36:02.655Z,24.20
2019-06-07T18:38:32.356Z,24.10
2019-06-07T18:41:02.091Z,24.10
2019-06-07T18:43:31.839Z,24.00
2019-06-07T18:46:01.529Z,24.00
2019-06-07T18:48:31.299Z,23.90
2019-06-07T18:51:01.103Z,23.90
2019-06-07T18:53:30.875Z,23.80
2019-06-07T18:56:01.560Z,23.80
2019-06-07T18:58:31.303Z,23.70
2019-06-07T19:01:01.023Z,23.70
2019-06-07T19:03:30.770Z,23.60
2019-06-07T19:06:00.564Z,23.60
2019-06-07T19:08:30.318Z,23.50
2019-06-07T19:11:00.194Z,23.50
2019-06-07T19:13:30.044Z,23.40
2019-06-07T19:16:05.881Z,23.30
2019-06-07T19:18:36.116Z,23.30
2019-06-07T19:21:05.895Z,23.20
2019-06-07T19:23:35.720Z,23.20
2019-06-07T19:26:05.396Z,23.20
2019-06-07T19:28:35.099Z,23.10
2019-06-07T19:31:05.013Z,23.10
2019-06-07T19:33:48.441Z,23.00
2019-06-07T19:36:06.428Z,23.00
2019-06-07T19:38:36.234Z,22.90
2019-06-07T19:41:17.915Z,22.90
2019-06-07T19:43:37.400Z,22.90
2019-06-07T19:46:07.093Z,22.80
2019-06-07T19:48:36.796Z,22.80
2019-06-07T19:51:07.562Z,22.70
2019-06-07T19:53:37.251Z,22.70
2019-06-07T19:56:06.963Z,22.60
2019-06-07T19:58:37.199Z,22.60
2019-06-07T20:01:07.337Z,22.50
2019-06-07T20:03:37.311Z,22.50
2019-06-07T20:06:07.114Z,22.50
2019-06-07T20:08:36.834Z,22.40
2019-06-07T20:11:06.588Z,22.40
2019-06-07T20:13:36.299Z,22.40
2019-06-07T20:16:06.054Z,22.30
2019-06-07T20:18:35.853Z,22.30
2019-06-07T20:21:05.714Z,22.30
2019-06-07T20:23:35.414Z,22.30
2019-06-07T20:26:06.452Z,22.20
2019-06-07T20:28:36.582Z,22.20
2019-06-07T20:31:06.270Z,22.20
2019-06-07T20:33:36.910Z,22.10
2019-06-07T20:36:06.615Z,22.10
2019-06-07T20:38:36.312Z,22.10
2019-06-07T20:41:07.350Z,22.00
2019-06-07T20:43:37.180Z,22.00
2019-06-07T20:46:08.123Z,21.90
2019-06-07T20:48:37.935Z,21.90
2019-06-07T20:51:08.715Z,21.90
2019-06-07T20:53:39.658Z,21.80
2019-06-07T20:56:14.205Z,21.80
2019-06-07T21:01:42.753Z,21.70
2019-06-07T21:04:11.660Z,21.70
2019-06-07T21:06:43.381Z,21.70
2019-06-07T21:09:13.104Z,21.60
2019-06-07T21:11:42.868Z,21.60
2019-06-07T21:14:13.664Z,21.60
2019-06-07T21:16:43.760Z,21.50
2019-06-07T21:19:14.241Z,21.50
2019-06-07T21:21:44.528Z,21.40
2019-06-07T21:24:15.410Z,21.40
2019-06-07T21:26:45.519Z,21.30
2019-06-07T21:29:15.318Z,21.20
2019-06-07T21:31:45.155Z,21.20
2019-06-07T21:34:14.994Z,21.10
2019-06-07T21:36:45.069Z,21.10
2019-06-07T21:39:15.426Z,21.00
2019-06-07T21:41:45.495Z,20.90
2019-06-07T21:44:15.387Z,20.90
2019-06-07T21:46:45.208Z,20.80
2019-06-07T21:49:15.134Z,20.80
2019-06-07T21:51:44.938Z,20.80
2019-06-07T21:54:15.043Z,20.80
2019-06-07T21:56:46.816Z,20.70
2019-06-07T21:59:16.544Z,20.70
2019-06-07T22:01:46.374Z,20.70
2019-06-07T22:04:16.397Z,20.60
2019-06-07T22:06:46.303Z,20.60
2019-06-07T22:09:18.894Z,20.60
2019-06-07T22:11:48.958Z,20.50
2019-06-07T22:14:20.622Z,20.50
2019-06-07T22:16:50.445Z,20.50
2019-06-07T22:19:20.243Z,20.50
2019-06-07T22:22:02.082Z,20.50
2019-06-07T22:24:21.772Z,20.40
2019-06-07T22:26:51.509Z,20.40
2019-06-07T22:29:21.192Z,20.40
2019-06-07T22:31:54.267Z,20.30
2019-06-07T22:34:24.055Z,20.30
2019-06-07T22:36:53.749Z,20.30
2019-06-07T22:39:23.569Z,20.30
2019-06-07T22:41:53.478Z,20.30
2019-06-07T22:44:23.279Z,20.20
2019-06-07T22:46:53.423Z,20.20
2019-06-07T22:49:23.391Z,20.20
2019-06-07T22:52:07.955Z,20.10
2019-06-07T22:54:24.716Z,20.10
2019-06-07T22:56:59.416Z,20.10
2019-06-07T22:59:29.205Z,20.10
2019-06-07T23:01:58.971Z,20.10
2019-06-07T23:04:29.116Z,20.00
2019-06-07T23:06:58.973Z,20.00
2019-06-07T23:09:28.983Z,20.00
2019-06-07T23:11:58.847Z,19.90
2019-06-07T23:14:28.600Z,19.90
2019-06-07T23:16:58.342Z,19.90
2019-06-07T23:19:28.269Z,19.90
2019-06-07T23:21:59.507Z,19.90
2019-06-07T23:24:29.319Z,19.90
2019-06-07T23:26:59.007Z,19.80
2019-06-07T23:29:29.105Z,19.80
2019-06-07T23:31:59.010Z,19.80
2019-06-07T23:34:29.049Z,19.80
2019-06-07T23:36:58.824Z,19.70
2019-06-07T23:39:28.514Z,19.70
2019-06-07T23:41:58.273Z,19.70
2019-06-07T23:44:27.991Z,19.70
2019-06-07T23:47:10.367Z,19.60
2019-06-07T23:49:29.167Z,19.60
2019-06-07T23:51:58.891Z,19.60
2019-06-07T23:54:28.675Z,19.60
2019-06-07T23:56:58.421Z,19.60
2019-06-07T23:59:29.391Z,19.50
